SRR90T EKBI-EKCH
Flight info
| Callsign | SRR90T |
|---|---|
| Flight time | 0h 27m |
| Altitude | 17000 |
| Route | ABINO T56 TESPI |
| Aircraft | B77L/H-SDE1E2E3FGHIJ2J3J4J5M1RWXY/LB1D1 |
Departure
| Time | 2026-04-22 19:40 |
|---|---|
| Airport | Billund Airport (EKBI) |
Arrival
| Time | 2026-04-22 20:08 |
|---|---|
| Airport | Copenhagen Kastrup Airport (EKCH) |
| Time | Latitude | Longitude | Altitude | Speed | Heading |
|---|---|---|---|---|---|
| 2026-04-22 19:21 | 55.73780 | 9.14015 | 221 ft | 0 kts | 179° |
| 2026-04-22 19:29 | 55.73797 | 9.14014 | 225 ft | 4 kts | 174° |
| 2026-04-22 19:30 | 55.73813 | 9.14012 | 222 ft | 4 kts | 171° |
| 2026-04-22 19:30 | 55.73836 | 9.13982 | 224 ft | 4 kts | 94° |
| 2026-04-22 19:30 | 55.73836 | 9.13965 | 222 ft | 2 kts | 85° |
| 2026-04-22 19:35 | 55.73839 | 9.14017 | 223 ft | 14 kts | 82° |
| 2026-04-22 19:35 | 55.73874 | 9.14248 | 224 ft | 21 kts | 59° |
| 2026-04-22 19:36 | 55.73967 | 9.14441 | 228 ft | 21 kts | 47° |
| 2026-04-22 19:36 | 55.74094 | 9.14491 | 221 ft | 19 kts | 357° |
| 2026-04-22 19:36 | 55.74185 | 9.14611 | 221 ft | 18 kts | 84° |
| 2026-04-22 19:36 | 55.74192 | 9.14832 | 225 ft | 18 kts | 86° |
| 2026-04-22 19:37 | 55.74199 | 9.15052 | 221 ft | 18 kts | 87° |
| 2026-04-22 19:37 | 55.74204 | 9.15272 | 221 ft | 18 kts | 90° |
| 2026-04-22 19:37 | 55.74211 | 9.15491 | 221 ft | 18 kts | 84° |
| 2026-04-22 19:37 | 55.74219 | 9.15712 | 226 ft | 18 kts | 89° |
| 2026-04-22 19:38 | 55.74225 | 9.15947 | 227 ft | 22 kts | 86° |
| 2026-04-22 19:38 | 55.74234 | 9.16216 | 224 ft | 23 kts | 86° |
| 2026-04-22 19:38 | 55.74245 | 9.16504 | 221 ft | 20 kts | 86° |
| 2026-04-22 19:38 | 55.74251 | 9.16751 | 224 ft | 20 kts | 87° |
| 2026-04-22 19:39 | 55.74204 | 9.16903 | 223 ft | 15 kts | 167° |
| 2026-04-22 19:39 | 55.74103 | 9.16890 | 225 ft | 16 kts | 220° |
| 2026-04-22 19:39 | 55.74082 | 9.16769 | 226 ft | 0 kts | 267° |
| 2026-04-22 19:39 | 55.74080 | 9.16698 | 227 ft | 30 kts | 266° |
| 2026-04-22 19:40 | 55.74050 | 9.15683 | 223 ft | 135 kts | 266° |
| 2026-04-22 19:40 | 55.73999 | 9.13717 | 1019 ft | 163 kts | 271° |
| 2026-04-22 19:40 | 55.74086 | 9.11761 | 2348 ft | 161 kts | 295° |
| 2026-04-22 19:40 | 55.74841 | 9.10176 | 2668 ft | 185 kts | 330° |
| 2026-04-22 19:41 | 55.76172 | 9.09753 | 3130 ft | 209 kts | 5° |
| 2026-04-22 19:41 | 55.77495 | 9.10984 | 3753 ft | 233 kts | 37° |
| 2026-04-22 19:41 | 55.78697 | 9.13121 | 4326 ft | 252 kts | 41° |
| 2026-04-22 19:41 | 55.79728 | 9.15743 | 5102 ft | 268 kts | 61° |
| 2026-04-22 19:42 | 55.80421 | 9.18850 | 5941 ft | 271 kts | 66° |
| 2026-04-22 19:42 | 55.81028 | 9.22013 | 7016 ft | 273 kts | 67° |
| 2026-04-22 19:42 | 55.81642 | 9.25234 | 8647 ft | 275 kts | 68° |
| 2026-04-22 19:42 | 55.82267 | 9.28451 | 10301 ft | 278 kts | 67° |
| 2026-04-22 19:43 | 55.83678 | 9.35465 | 12161 ft | 333 kts | 68° |
| 2026-04-22 19:43 | 55.84528 | 9.39601 | 12351 ft | 381 kts | 67° |
| 2026-04-22 19:43 | 55.85503 | 9.44321 | 12444 ft | 426 kts | 68° |
| 2026-04-22 19:44 | 55.86495 | 9.49151 | 12960 ft | 401 kts | 68° |
| 2026-04-22 19:44 | 55.87428 | 9.53712 | 13070 ft | 388 kts | 68° |
| 2026-04-22 19:44 | 55.88352 | 9.58205 | 12794 ft | 385 kts | 68° |
| 2026-04-22 19:44 | 55.89270 | 9.62660 | 12565 ft | 379 kts | 68° |
| 2026-04-22 19:45 | 55.90168 | 9.67015 | 12506 ft | 371 kts | 68° |
| 2026-04-22 19:45 | 55.91061 | 9.71341 | 12810 ft | 375 kts | 67° |
| 2026-04-22 19:45 | 55.91967 | 9.75738 | 13780 ft | 380 kts | 68° |
| 2026-04-22 19:45 | 55.92875 | 9.80155 | 14632 ft | 385 kts | 68° |
| 2026-04-22 19:46 | 55.93795 | 9.84646 | 15593 ft | 386 kts | 68° |
| 2026-04-22 19:46 | 55.94729 | 9.89217 | 16500 ft | 389 kts | 69° |
| 2026-04-22 19:46 | 55.95641 | 9.93772 | 17214 ft | 390 kts | 71° |
| 2026-04-22 19:46 | 55.96211 | 9.98490 | 17274 ft | 399 kts | 83° |
| 2026-04-22 19:47 | 55.96253 | 10.03472 | 17294 ft | 401 kts | 91° |
| 2026-04-22 19:47 | 55.95920 | 10.08408 | 17292 ft | 401 kts | 98° |
| 2026-04-22 19:47 | 55.95481 | 10.11616 | 17281 ft | 402 kts | 105° |
| 2026-04-22 19:47 | 55.94236 | 10.17935 | 17296 ft | 404 kts | 108° |
| 2026-04-22 19:48 | 55.93241 | 10.22616 | 17308 ft | 405 kts | 109° |
| 2026-04-22 19:48 | 55.92231 | 10.27310 | 17295 ft | 406 kts | 109° |
| 2026-04-22 19:48 | 55.91225 | 10.32014 | 17289 ft | 406 kts | 108° |
| 2026-04-22 19:48 | 55.90223 | 10.36737 | 17287 ft | 407 kts | 108° |
| 2026-04-22 19:49 | 55.89227 | 10.41465 | 17289 ft | 407 kts | 108° |
| 2026-04-22 19:49 | 55.88240 | 10.46174 | 17288 ft | 407 kts | 108° |
| 2026-04-22 19:49 | 55.87252 | 10.50898 | 17287 ft | 407 kts | 108° |
| 2026-04-22 19:49 | 55.86264 | 10.55619 | 17286 ft | 406 kts | 108° |
| 2026-04-22 19:50 | 55.85276 | 10.60333 | 17287 ft | 406 kts | 108° |
| 2026-04-22 19:50 | 55.84300 | 10.64983 | 17283 ft | 406 kts | 108° |
| 2026-04-22 19:50 | 55.83300 | 10.69739 | 17261 ft | 404 kts | 108° |
| 2026-04-22 19:50 | 55.82330 | 10.74335 | 17016 ft | 400 kts | 108° |
| 2026-04-22 19:51 | 55.81352 | 10.78955 | 16537 ft | 397 kts | 108° |
| 2026-04-22 19:51 | 55.80378 | 10.83550 | 15927 ft | 397 kts | 108° |
| 2026-04-22 19:51 | 55.79403 | 10.88146 | 15324 ft | 398 kts | 108° |
| 2026-04-22 19:51 | 55.78422 | 10.92752 | 14779 ft | 397 kts | 108° |
| 2026-04-22 19:52 | 55.77445 | 10.97334 | 14271 ft | 395 kts | 108° |
| 2026-04-22 19:52 | 55.76538 | 11.01575 | 13799 ft | 394 kts | 108° |
| 2026-04-22 19:52 | 55.75564 | 11.06116 | 13407 ft | 392 kts | 108° |
| 2026-04-22 19:52 | 55.74584 | 11.10682 | 13279 ft | 396 kts | 108° |
| 2026-04-22 19:53 | 55.73619 | 11.15168 | 13261 ft | 390 kts | 109° |
| 2026-04-22 19:53 | 55.72672 | 11.19542 | 13116 ft | 365 kts | 109° |
| 2026-04-22 19:53 | 55.72075 | 11.22289 | 12946 ft | 344 kts | 108° |
| 2026-04-22 19:53 | 55.70991 | 11.27269 | 12439 ft | 313 kts | 108° |
| 2026-04-22 19:54 | 55.70219 | 11.30822 | 11748 ft | 303 kts | 108° |
| 2026-04-22 19:54 | 55.69468 | 11.34287 | 10972 ft | 300 kts | 107° |
| 2026-04-22 19:54 | 55.68723 | 11.37725 | 10161 ft | 298 kts | 107° |
| 2026-04-22 19:54 | 55.67980 | 11.41143 | 9284 ft | 296 kts | 107° |
| 2026-04-22 19:55 | 55.67240 | 11.44539 | 8657 ft | 297 kts | 107° |
| 2026-04-22 19:55 | 55.66495 | 11.47953 | 8459 ft | 294 kts | 107° |
| 2026-04-22 19:55 | 55.65771 | 11.51253 | 8258 ft | 290 kts | 107° |
| 2026-04-22 19:55 | 55.65042 | 11.54577 | 8109 ft | 287 kts | 107° |
| 2026-04-22 19:56 | 55.64325 | 11.57842 | 7895 ft | 282 kts | 107° |
| 2026-04-22 19:56 | 55.63616 | 11.61063 | 7536 ft | 280 kts | 107° |
| 2026-04-22 19:56 | 55.62909 | 11.64273 | 7127 ft | 280 kts | 107° |
| 2026-04-22 19:56 | 55.62197 | 11.67497 | 6731 ft | 280 kts | 107° |
| 2026-04-22 19:57 | 55.61487 | 11.70705 | 6316 ft | 280 kts | 108° |
| 2026-04-22 19:57 | 55.60780 | 11.73899 | 5922 ft | 278 kts | 108° |
| 2026-04-22 19:57 | 55.60075 | 11.77084 | 5545 ft | 277 kts | 108° |
| 2026-04-22 19:57 | 55.59373 | 11.80245 | 5178 ft | 276 kts | 108° |
| 2026-04-22 19:58 | 55.58673 | 11.83390 | 4784 ft | 274 kts | 108° |
| 2026-04-22 19:58 | 55.57975 | 11.86523 | 4400 ft | 273 kts | 108° |
| 2026-04-22 19:58 | 55.57289 | 11.89600 | 4043 ft | 272 kts | 109° |
| 2026-04-22 19:58 | 55.56590 | 11.92728 | 4013 ft | 275 kts | 109° |
| 2026-04-22 19:59 | 55.55888 | 11.95863 | 4002 ft | 274 kts | 108° |
| 2026-04-22 20:00 | 55.51198 | 12.12499 | 3628 ft | 272 kts | 124° |
| 2026-04-22 20:00 | 55.50078 | 12.15224 | 3262 ft | 271 kts | 124° |
| 2026-04-22 20:01 | 55.49031 | 12.17785 | 2931 ft | 269 kts | 124° |
| 2026-04-22 20:01 | 55.47943 | 12.20445 | 2627 ft | 266 kts | 124° |
| 2026-04-22 20:01 | 55.46870 | 12.23077 | 2284 ft | 264 kts | 124° |
| 2026-04-22 20:01 | 55.45808 | 12.25701 | 2005 ft | 262 kts | 124° |
| 2026-04-22 20:02 | 55.44756 | 12.28326 | 2022 ft | 262 kts | 121° |
| 2026-04-22 20:02 | 55.44006 | 12.31217 | 1998 ft | 258 kts | 99° |
| 2026-04-22 20:02 | 55.44111 | 12.34190 | 1994 ft | 236 kts | 59° |
| 2026-04-22 20:02 | 55.45085 | 12.36323 | 2013 ft | 219 kts | 38° |
| 2026-04-22 20:03 | 55.46140 | 12.38302 | 2023 ft | 224 kts | 43° |
| 2026-04-22 20:03 | 55.47162 | 12.40382 | 1996 ft | 225 kts | 43° |
| 2026-04-22 20:03 | 55.48120 | 12.42540 | 1977 ft | 221 kts | 57° |
| 2026-04-22 20:03 | 55.48674 | 12.45006 | 1994 ft | 211 kts | 63° |
| 2026-04-22 20:04 | 55.49395 | 12.47128 | 1912 ft | 197 kts | 39° |
| 2026-04-22 20:04 | 55.50386 | 12.48734 | 1816 ft | 192 kts | 34° |
| 2026-04-22 20:04 | 55.51393 | 12.50126 | 1869 ft | 175 kts | 28° |
| 2026-04-22 20:04 | 55.52398 | 12.51381 | 1492 ft | 173 kts | 29° |
| 2026-04-22 20:05 | 55.53284 | 12.52680 | 1440 ft | 162 kts | 39° |
| 2026-04-22 20:05 | 55.54099 | 12.54060 | 1491 ft | 163 kts | 36° |
| 2026-04-22 20:05 | 55.54958 | 12.55380 | 1506 ft | 163 kts | 32° |
| 2026-04-22 20:05 | 55.55814 | 12.56613 | 1225 ft | 154 kts | 31° |
| 2026-04-22 20:06 | 55.56629 | 12.57765 | 995 ft | 144 kts | 30° |
| 2026-04-22 20:06 | 55.57429 | 12.58881 | 779 ft | 150 kts | 36° |
| 2026-04-22 20:06 | 55.58214 | 12.60125 | 590 ft | 157 kts | 36° |
| 2026-04-22 20:06 | 55.59056 | 12.61365 | 403 ft | 157 kts | 38° |
| 2026-04-22 20:07 | 55.59870 | 12.62627 | 212 ft | 155 kts | 37° |
| 2026-04-22 20:07 | 55.60690 | 12.63888 | 41 ft | 160 kts | 38° |
| 2026-04-22 20:07 | 55.61469 | 12.65095 | 28 ft | 130 kts | 41° |
| 2026-04-22 20:07 | 55.61956 | 12.65841 | 29 ft | 71 kts | 43° |
| 2026-04-22 20:08 | 55.62158 | 12.66160 | 27 ft | 11 kts | 47° |
| 2026-04-22 20:08 | 55.62163 | 12.66190 | 27 ft | 1 kts | 105° |
| 2026-04-22 20:08 | 55.62109 | 12.66245 | 28 ft | 14 kts | 159° |
| 2026-04-22 20:08 | 55.62015 | 12.66301 | 28 ft | 14 kts | 161° |
| 2026-04-22 20:09 | 55.61921 | 12.66355 | 28 ft | 14 kts | 162° |
| 2026-04-22 20:09 | 55.61851 | 12.66448 | 28 ft | 13 kts | 105° |
| 2026-04-22 20:09 | 55.61859 | 12.66607 | 28 ft | 13 kts | 79° |
| 2026-04-22 20:09 | 55.61877 | 12.66763 | 28 ft | 13 kts | 79° |
| 2026-04-22 20:10 | 55.61897 | 12.66915 | 28 ft | 11 kts | 63° |
| 2026-04-22 20:10 | 55.61967 | 12.66935 | 28 ft | 11 kts | 354° |
| 2026-04-22 20:10 | 55.62026 | 12.66964 | 28 ft | 9 kts | 54° |
| 2026-04-22 20:10 | 55.62042 | 12.67039 | 27 ft | 3 kts | 84° |
| 2026-04-22 20:11 | 55.62042 | 12.67041 | 27 ft | 0 kts | 84° |
| 2026-04-22 20:11 | 55.62063 | 12.67060 | 28 ft | 0 kts | 79° |